sensor_id;sensor_type;location;lat;lon;timestamp;pressure;altitude;pressure_sealevel;temperature;humidity
25759;BME280;13604;52.496;13.456;2023-05-01T00:01:16;101701.53;;;5.12;75.02
25759;BME280;13604;52.496;13.456;2023-05-01T00:03:41;101737.75;;;5.34;74.77
25759;BME280;13604;52.496;13.456;2023-05-01T00:06:07;101725.38;;;5.20;74.95
25759;BME280;13604;52.496;13.456;2023-05-01T00:08:32;101745.38;;;5.32;74.39
25759;BME280;13604;52.496;13.456;2023-05-01T00:11:02;101740.47;;;5.35;75.10
25759;BME280;13604;52.496;13.456;2023-05-01T00:13:28;101674.09;;;4.92;74.05
25759;BME280;13604;52.496;13.456;2023-05-01T00:15:53;101725.78;;;5.24;74.43
25759;BME280;13604;52.496;13.456;2023-05-01T00:18:19;101719.19;;;5.18;74.81
25759;BME280;13604;52.496;13.456;2023-05-01T00:20:45;101741.66;;;5.29;74.79
25759;BME280;13604;52.496;13.456;2023-05-01T00:23:10;101692.25;;;5.04;75.08
25759;BME280;13604;52.496;13.456;2023-05-01T00:25:36;101716.91;;;5.10;74.93
25759;BME280;13604;52.496;13.456;2023-05-01T00:28:02;101685.44;;;4.94;75.25
25759;BME280;13604;52.496;13.456;2023-05-01T00:30:27;101712.50;;;5.09;74.87
25759;BME280;13604;52.496;13.456;2023-05-01T00:32:53;101684.88;;;4.98;74.04
25759;BME280;13604;52.496;13.456;2023-05-01T00:35:18;101728.91;;;5.20;74.36
25759;BME280;13604;52.496;13.456;2023-05-01T00:37:43;101701.28;;;5.09;74.20
25759;BME280;13604;52.496;13.456;2023-05-01T00:40:09;101721.41;;;5.13;74.08
25759;BME280;13604;52.496;13.456;2023-05-01T00:42:35;101707.34;;;5.09;73.88
25759;BME280;13604;52.496;13.456;2023-05-01T00:45:01;101693.28;;;5.06;74.07
25759;BME280;13604;52.496;13.456;2023-05-01T00:47:26;101714.31;;;5.10;74.03
25759;BME280;13604;52.496;13.456;2023-05-01T00:49:53;101691.09;;;4.90;74.66
25759;BME280;13604;52.496;13.456;2023-05-01T00:52:18;101655.13;;;4.71;75.21
25759;BME280;13604;52.496;13.456;2023-05-01T00:54:44;101716.94;;;5.00;75.09
25759;BME280;13604;52.496;13.456;2023-05-01T00:57:16;101676.16;;;4.75;75.25
25759;BME280;13604;52.496;13.456;2023-05-01T00:59:41;101649.22;;;4.51;75.82
25759;BME280;13604;52.496;13.456;2023-05-01T01:02:06;101687.75;;;4.70;76.46
25759;BME280;13604;52.496;13.456;2023-05-01T01:04:31;101666.22;;;4.59;76.29
25759;BME280;13604;52.496;13.456;2023-05-01T01:10:10;101698.34;;;4.73;76.65
25759;BME280;13604;52.496;13.456;2023-05-01T01:12:57;101688.16;;;4.65;76.97
25759;BME280;13604;52.496;13.456;2023-05-01T01:15:32;101668.28;;;4.43;77.13
25759;BME280;13604;52.496;13.456;2023-05-01T01:18:07;101680.16;;;4.51;77.48
25759;BME280;13604;52.496;13.456;2023-05-01T01:20:45;101668.94;;;4.40;78.15
25759;BME280;13604;52.496;13.456;2023-05-01T01:23:35;101706.75;;;4.60;78.46
25759;BME280;13604;52.496;13.456;2023-05-01T01:32:08;101703.25;;;4.50;78.82
25759;BME280;13604;52.496;13.456;2023-05-01T01:34:56;101662.22;;;4.22;78.60
25759;BME280;13604;52.496;13.456;2023-05-01T01:37:39;101675.88;;;4.21;81.41
25759;BME280;13604;52.496;13.456;2023-05-01T01:40:11;101555.78;;;3.42;80.86
25759;BME280;13604;52.496;13.456;2023-05-01T01:42:45;101688.53;;;4.28;82.72
25759;BME280;13604;52.496;13.456;2023-05-01T01:45:14;101673.28;;;4.11;83.38
25759;BME280;13604;52.496;13.456;2023-05-01T01:47:43;101658.81;;;4.02;83.45
25759;BME280;13604;52.496;13.456;2023-05-01T01:50:10;101648.38;;;3.91;83.55
25759;BME280;13604;52.496;13.456;2023-05-01T01:52:39;101658.44;;;3.98;83.09
25759;BME280;13604;52.496;13.456;2023-05-01T01:55:08;101677.91;;;4.04;83.43
25759;BME280;13604;52.496;13.456;2023-05-01T01:57:35;101692.75;;;4.07;83.54
25759;BME280;13604;52.496;13.456;2023-05-01T02:00:02;101668.50;;;3.95;83.88
25759;BME280;13604;52.496;13.456;2023-05-01T02:02:33;101631.63;;;3.85;83.91
25759;BME280;13604;52.496;13.456;2023-05-01T02:05:01;101665.28;;;4.08;83.13
25759;BME280;13604;52.496;13.456;2023-05-01T02:07:27;101673.00;;;4.08;83.05
25759;BME280;13604;52.496;13.456;2023-05-01T02:09:54;101650.31;;;3.93;83.71
25759;BME280;13604;52.496;13.456;2023-05-01T02:12:21;101655.63;;;3.95;84.08
25759;BME280;13604;52.496;13.456;2023-05-01T02:14:47;101630.31;;;3.70;84.25
25759;BME280;13604;52.496;13.456;2023-05-01T02:17:16;101690.38;;;3.90;84.89
25759;BME280;13604;52.496;13.456;2023-05-01T02:19:44;101641.97;;;3.66;85.21
25759;BME280;13604;52.496;13.456;2023-05-01T02:22:10;101667.00;;;3.78;85.99
25759;BME280;13604;52.496;13.456;2023-05-01T02:24:37;101650.22;;;3.62;86.24
25759;BME280;13604;52.496;13.456;2023-05-01T02:27:06;101667.88;;;3.68;87.02
25759;BME280;13604;52.496;13.456;2023-05-01T02:29:33;101668.00;;;3.59;87.87
25759;BME280;13604;52.496;13.456;2023-05-01T02:31:59;101666.97;;;3.57;87.74
25759;BME280;13604;52.496;13.456;2023-05-01T02:34:25;101602.13;;;3.13;88.91
25759;BME280;13604;52.496;13.456;2023-05-01T02:36:50;101637.59;;;3.26;88.75
25759;BME280;13604;52.496;13.456;2023-05-01T02:39:16;101654.34;;;3.31;89.90
25759;BME280;13604;52.496;13.456;2023-05-01T02:41:41;101659.91;;;3.36;89.60
25759;BME280;13604;52.496;13.456;2023-05-01T02:44:10;101579.38;;;2.88;89.56
25759;BME280;13604;52.496;13.456;2023-05-01T02:46:37;101633.91;;;3.13;90.53
25759;BME280;13604;52.496;13.456;2023-05-01T02:49:07;101622.31;;;3.08;90.63
25759;BME280;13604;52.496;13.456;2023-05-01T02:51:34;101614.03;;;3.02;90.96
25759;BME280;13604;52.496;13.456;2023-05-01T02:54:00;101634.28;;;3.08;91.30
25759;BME280;13604;52.496;13.456;2023-05-01T02:56:25;101632.63;;;3.08;92.26
25759;BME280;13604;52.496;13.456;2023-05-01T02:58:54;101636.22;;;3.10;91.83
25759;BME280;13604;52.496;13.456;2023-05-01T03:01:19;101599.69;;;2.85;91.95
25759;BME280;13604;52.496;13.456;2023-05-01T03:03:45;101614.97;;;3.03;91.64
25759;BME280;13604;52.496;13.456;2023-05-01T03:06:11;101542.28;;;2.57;91.63
25759;BME280;13604;52.496;13.456;2023-05-01T03:08:38;101622.19;;;3.07;91.23
25759;BME280;13604;52.496;13.456;2023-05-01T03:11:05;101608.00;;;3.02;90.38
25759;BME280;13604;52.496;13.456;2023-05-01T03:13:31;101578.09;;;2.93;89.90
25759;BME280;13604;52.496;13.456;2023-05-01T03:15:56;101539.28;;;2.71;90.01
25759;BME280;13604;52.496;13.456;2023-05-01T03:18:22;101585.88;;;3.04;89.44
25759;BME280;13604;52.496;13.456;2023-05-01T03:20:51;101573.94;;;3.04;89.02
25759;BME280;13604;52.496;13.456;2023-05-01T03:23:17;101606.50;;;3.14;89.10
25759;BME280;13604;52.496;13.456;2023-05-01T03:25:43;101611.06;;;3.27;88.02
25759;BME280;13604;52.496;13.456;2023-05-01T03:28:08;101597.16;;;3.25;87.83
25759;BME280;13604;52.496;13.456;2023-05-01T03:30:34;101541.81;;;2.90;88.32
25759;BME280;13604;52.496;13.456;2023-05-01T03:33:00;101594.31;;;3.22;87.47
25759;BME280;13604;52.496;13.456;2023-05-01T03:35:25;101551.53;;;3.03;88.05
25759;BME280;13604;52.496;13.456;2023-05-01T03:37:51;101574.25;;;3.18;87.94
25759;BME280;13604;52.496;13.456;2023-05-01T03:40:17;101505.72;;;2.70;88.30
25759;BME280;13604;52.496;13.456;2023-05-01T03:42:43;101533.81;;;2.87;87.90
25759;BME280;13604;52.496;13.456;2023-05-01T03:45:08;101584.84;;;3.02;88.78
25759;BME280;13604;52.496;13.456;2023-05-01T03:47:34;101600.31;;;3.12;89.20
25759;BME280;13604;52.496;13.456;2023-05-01T03:49:59;101546.13;;;2.81;89.15
25759;BME280;13604;52.496;13.456;2023-05-01T03:52:25;101585.31;;;2.98;89.80
25759;BME280;13604;52.496;13.456;2023-05-01T03:54:50;101565.63;;;2.88;89.37
25759;BME280;13604;52.496;13.456;2023-05-01T03:57:15;101579.78;;;2.93;89.83
25759;BME280;13604;52.496;13.456;2023-05-01T03:59:41;101579.00;;;2.94;90.29
25759;BME280;13604;52.496;13.456;2023-05-01T04:02:08;101553.22;;;2.84;89.83
25759;BME280;13604;52.496;13.456;2023-05-01T04:04:34;101596.84;;;3.11;89.44
25759;BME280;13604;52.496;13.456;2023-05-01T04:07:00;101560.34;;;2.86;89.20
25759;BME280;13604;52.496;13.456;2023-05-01T04:09:26;101567.53;;;2.90;89.12
25759;BME280;13604;52.496;13.456;2023-05-01T04:11:51;101590.81;;;3.11;88.89
25759;BME280;13604;52.496;13.456;2023-05-01T04:14:16;101590.03;;;3.12;88.54
25759;BME280;13604;52.496;13.456;2023-05-01T04:16:42;101561.97;;;2.86;87.78
25759;BME280;13604;52.496;13.456;2023-05-01T04:19:07;101521.41;;;2.73;88.19
25759;BME280;13604;52.496;13.456;2023-05-01T04:21:33;101569.03;;;3.07;87.49
25759;BME280;13604;52.496;13.456;2023-05-01T04:23:59;101556.56;;;3.12;86.72
25759;BME280;13604;52.496;13.456;2023-05-01T04:26:24;101583.81;;;3.29;86.15
25759;BME280;13604;52.496;13.456;2023-05-01T04:28:50;101572.97;;;3.23;86.48
25759;BME280;13604;52.496;13.456;2023-05-01T04:31:16;101572.59;;;3.28;86.24
25759;BME280;13604;52.496;13.456;2023-05-01T04:33:41;101557.25;;;3.20;85.44
25759;BME280;13604;52.496;13.456;2023-05-01T04:36:06;101561.00;;;3.34;86.25
25759;BME280;13604;52.496;13.456;2023-05-01T04:38:32;101560.00;;;3.31;85.66
25759;BME280;13604;52.496;13.456;2023-05-01T04:40:57;101566.09;;;3.42;85.89
25759;BME280;13604;52.496;13.456;2023-05-01T04:43:23;101580.41;;;3.59;85.38
25759;BME280;13604;52.496;13.456;2023-05-01T04:45:48;101479.75;;;3.17;84.34
25759;BME280;13604;52.496;13.456;2023-05-01T04:48:13;101507.59;;;3.31;84.28
25759;BME280;13604;52.496;13.456;2023-05-01T04:50:39;101514.66;;;3.34;84.57
25759;BME280;13604;52.496;13.456;2023-05-01T04:53:04;101536.09;;;3.53;84.62
25759;BME280;13604;52.496;13.456;2023-05-01T04:55:29;101562.03;;;3.75;84.04
25759;BME280;13604;52.496;13.456;2023-05-01T04:57:55;101548.22;;;3.64;82.88
25759;BME280;13604;52.496;13.456;2023-05-01T05:00:21;101525.28;;;3.57;83.01
25759;BME280;13604;52.496;13.456;2023-05-01T05:02:47;101558.03;;;3.79;81.83
25759;BME280;13604;52.496;13.456;2023-05-01T05:05:12;101548.63;;;3.79;82.14
25759;BME280;13604;52.496;13.456;2023-05-01T05:07:37;101555.06;;;3.84;82.66
25759;BME280;13604;52.496;13.456;2023-05-01T05:10:03;101590.53;;;3.97;82.42
25759;BME280;13604;52.496;13.456;2023-05-01T05:12:28;101518.50;;;3.78;82.02
25759;BME280;13604;52.496;13.456;2023-05-01T05:14:54;101554.84;;;4.02;81.07
25759;BME280;13604;52.496;13.456;2023-05-01T05:17:19;101556.66;;;4.03;81.08
25759;BME280;13604;52.496;13.456;2023-05-01T05:19:44;101560.88;;;4.13;80.64
25759;BME280;13604;52.496;13.456;2023-05-01T05:22:10;101506.00;;;3.93;80.09
25759;BME280;13604;52.496;13.456;2023-05-01T05:24:36;101528.91;;;4.11;79.48
25759;BME280;13604;52.496;13.456;2023-05-01T05:27:02;101551.72;;;4.37;78.71
25759;BME280;13604;52.496;13.456;2023-05-01T05:29:28;101561.88;;;4.46;78.54
25759;BME280;13604;52.496;13.456;2023-05-01T05:31:53;101547.47;;;4.48;78.59
25759;BME280;13604;52.496;13.456;2023-05-01T05:34:18;101525.13;;;4.48;77.68
25759;BME280;13604;52.496;13.456;2023-05-01T05:36:43;101544.91;;;4.80;77.18
25759;BME280;13604;52.496;13.456;2023-05-01T05:39:09;101513.72;;;4.77;76.77
25759;BME280;13604;52.496;13.456;2023-05-01T05:41:35;101504.84;;;4.95;75.93
25759;BME280;13604;52.496;13.456;2023-05-01T05:44:00;101495.25;;;5.05;74.03
25759;BME280;13604;52.496;13.456;2023-05-01T05:46:25;101499.56;;;5.26;73.53
25759;BME280;13604;52.496;13.456;2023-05-01T05:48:51;101535.09;;;5.63;73.26
25759;BME280;13604;52.496;13.456;2023-05-01T05:51:16;101534.91;;;5.71;71.40
25759;BME280;13604;52.496;13.456;2023-05-01T05:53:41;101482.94;;;5.57;71.19
25759;BME280;13604;52.496;13.456;2023-05-01T05:56:07;101534.03;;;6.05;69.78
25759;BME280;13604;52.496;13.456;2023-05-01T05:58:32;101491.81;;;5.94;69.65
25759;BME280;13604;52.496;13.456;2023-05-01T06:00:57;101469.94;;;6.01;70.44
25759;BME280;13604;52.496;13.456;2023-05-01T06:03:23;101486.41;;;6.25;68.42
25759;BME280;13604;52.496;13.456;2023-05-01T06:05:48;101502.28;;;6.53;68.42
25759;BME280;13604;52.496;13.456;2023-05-01T06:08:13;101521.81;;;6.85;67.49
25759;BME280;13604;52.496;13.456;2023-05-01T06:10:41;101502.00;;;6.86;65.47
25759;BME280;13604;52.496;13.456;2023-05-01T06:13:06;101519.09;;;6.95;65.38
25759;BME280;13604;52.496;13.456;2023-05-01T06:15:36;101519.41;;;7.12;64.56
25759;BME280;13604;52.496;13.456;2023-05-01T06:18:01;101483.75;;;7.08;64.38
25759;BME280;13604;52.496;13.456;2023-05-01T06:20:27;101492.25;;;7.30;64.13
25759;BME280;13604;52.496;13.456;2023-05-01T06:22:52;101509.28;;;7.52;63.28
25759;BME280;13604;52.496;13.456;2023-05-01T06:25:17;101505.06;;;7.66;61.51
25759;BME280;13604;52.496;13.456;2023-05-01T06:27:43;101514.72;;;7.93;61.02
25759;BME280;13604;52.496;13.456;2023-05-01T06:30:09;101522.06;;;8.13;61.51
25759;BME280;13604;52.496;13.456;2023-05-01T06:32:34;101488.34;;;8.13;60.26
25759;BME280;13604;52.496;13.456;2023-05-01T06:35:00;101511.16;;;8.43;58.64
25759;BME280;13604;52.496;13.456;2023-05-01T06:37:25;101504.97;;;8.55;57.45
25759;BME280;13604;52.496;13.456;2023-05-01T06:39:51;101505.28;;;8.73;57.68
25759;BME280;13604;52.496;13.456;2023-05-01T06:42:16;101479.50;;;8.76;56.88
25759;BME280;13604;52.496;13.456;2023-05-01T06:44:42;101502.94;;;9.04;56.55
25759;BME280;13604;52.496;13.456;2023-05-01T06:47:07;101479.59;;;9.19;56.91
25759;BME280;13604;52.496;13.456;2023-05-01T06:49:32;101480.25;;;9.15;55.30
25759;BME280;13604;52.496;13.456;2023-05-01T06:51:59;101511.69;;;9.61;54.46
25759;BME280;13604;52.496;13.456;2023-05-01T06:54:25;101481.38;;;9.76;55.08
25759;BME280;13604;52.496;13.456;2023-05-01T06:56:51;101486.47;;;10.03;52.77
25759;BME280;13604;52.496;13.456;2023-05-01T06:59:17;101452.53;;;10.17;51.99
25759;BME280;13604;52.496;13.456;2023-05-01T07:01:42;101472.91;;;10.39;50.82
25759;BME280;13604;52.496;13.456;2023-05-01T07:04:07;101494.72;;;10.41;50.03
25759;BME280;13604;52.496;13.456;2023-05-01T07:06:33;101467.72;;;10.39;49.41
25759;BME280;13604;52.496;13.456;2023-05-01T07:08:59;101471.63;;;10.62;50.19
25759;BME280;13604;52.496;13.456;2023-05-01T07:11:24;101456.94;;;10.79;49.02
25759;BME280;13604;52.496;13.456;2023-05-01T07:13:51;101489.50;;;10.87;48.71
25759;BME280;13604;52.496;13.456;2023-05-01T07:16:16;101467.28;;;11.09;49.67
25759;BME280;13604;52.496;13.456;2023-05-01T07:18:41;101465.00;;;11.31;48.12
25759;BME280;13604;52.496;13.456;2023-05-01T07:21:07;101485.22;;;11.52;47.67
25759;BME280;13604;52.496;13.456;2023-05-01T07:23:34;101484.31;;;11.84;46.69
25759;BME280;13604;52.496;13.456;2023-05-01T07:25:59;101459.53;;;12.10;46.35
25759;BME280;13604;52.496;13.456;2023-05-01T07:28:25;101451.41;;;12.04;45.89
25759;BME280;13604;52.496;13.456;2023-05-01T07:30:50;101470.09;;;12.30;45.63
25759;BME280;13604;52.496;13.456;2023-05-01T07:33:15;101448.84;;;12.40;45.86
25759;BME280;13604;52.496;13.456;2023-05-01T07:35:40;101443.66;;;12.78;44.13
25759;BME280;13604;52.496;13.456;2023-05-01T07:38:07;101466.59;;;13.79;43.75
25759;BME280;13604;52.496;13.456;2023-05-01T07:40:32;101453.16;;;14.76;41.51
25759;BME280;13604;52.496;13.456;2023-05-01T07:42:59;101469.38;;;14.67;40.58
25759;BME280;13604;52.496;13.456;2023-05-01T07:45:24;101450.91;;;15.32;39.58
25759;BME280;13604;52.496;13.456;2023-05-01T07:47:49;101435.78;;;14.79;39.86
25759;BME280;13604;52.496;13.456;2023-05-01T07:50:16;101440.91;;;14.76;39.60
25759;BME280;13604;52.496;13.456;2023-05-01T07:52:42;101458.31;;;14.53;39.94
25759;BME280;13604;52.496;13.456;2023-05-01T07:55:07;101456.06;;;14.61;40.90
25759;BME280;13604;52.496;13.456;2023-05-01T07:57:34;101412.66;;;14.91;39.49
25759;BME280;13604;52.496;13.456;2023-05-01T07:59:59;101421.31;;;14.66;40.74
25759;BME280;13604;52.496;13.456;2023-05-01T08:02:25;101417.59;;;15.55;38.08
25759;BME280;13604;52.496;13.456;2023-05-01T08:04:50;101407.00;;;15.27;38.45
25759;BME280;13604;52.496;13.456;2023-05-01T08:07:15;101414.75;;;15.98;37.55
25759;BME280;13604;52.496;13.456;2023-05-01T08:09:41;101430.38;;;15.94;37.67
25759;BME280;13604;52.496;13.456;2023-05-01T08:12:06;101417.78;;;16.36;36.87
25759;BME280;13604;52.496;13.456;2023-05-01T08:14:32;101431.38;;;15.73;37.81
25759;BME280;13604;52.496;13.456;2023-05-01T08:16:57;101431.53;;;16.29;37.15
25759;BME280;13604;52.496;13.456;2023-05-01T08:19:23;101410.38;;;15.49;37.86
25759;BME280;13604;52.496;13.456;2023-05-01T08:21:48;101415.63;;;15.49;37.19
25759;BME280;13604;52.496;13.456;2023-05-01T08:24:14;101423.91;;;15.36;37.80
25759;BME280;13604;52.496;13.456;2023-05-01T08:26:39;101421.44;;;16.98;38.03
25759;BME280;13604;52.496;13.456;2023-05-01T08:29:04;101382.97;;;17.65;34.56
25759;BME280;13604;52.496;13.456;2023-05-01T08:31:30;101408.78;;;16.30;35.29
25759;BME280;13604;52.496;13.456;2023-05-01T08:33:55;101411.03;;;15.92;36.03
25759;BME280;13604;52.496;13.456;2023-05-01T08:36:21;101423.81;;;16.34;36.13
25759;BME280;13604;52.496;13.456;2023-05-01T08:38:46;101400.38;;;16.40;35.09
25759;BME280;13604;52.496;13.456;2023-05-01T08:41:20;101419.19;;;15.99;35.61
25759;BME280;13604;52.496;13.456;2023-05-01T08:43:47;101401.88;;;17.20;35.08
25759;BME280;13604;52.496;13.456;2023-05-01T08:46:19;101396.06;;;18.71;33.29
25759;BME280;13604;52.496;13.456;2023-05-01T08:48:47;101391.28;;;18.93;32.22
25759;BME280;13604;52.496;13.456;2023-05-01T08:51:14;101369.09;;;19.75;30.41
25759;BME280;13604;52.496;13.456;2023-05-01T08:53:42;101398.13;;;19.73;30.27
25759;BME280;13604;52.496;13.456;2023-05-01T08:56:09;101391.69;;;19.56;29.17
25759;BME280;13604;52.496;13.456;2023-05-01T08:58:38;101390.78;;;19.57;29.79
25759;BME280;13604;52.496;13.456;2023-05-01T09:01:04;101361.22;;;18.83;30.49
25759;BME280;13604;52.496;13.456;2023-05-01T09:03:30;101389.19;;;18.78;31.25
25759;BME280;13604;52.496;13.456;2023-05-01T09:05:58;101365.03;;;18.60;31.08
25759;BME280;13604;52.496;13.456;2023-05-01T09:08:24;101360.97;;;18.74;30.50
25759;BME280;13604;52.496;13.456;2023-05-01T09:10:50;101378.91;;;19.79;30.66
25759;BME280;13604;52.496;13.456;2023-05-01T09:13:17;101354.16;;;20.30;29.06
25759;BME280;13604;52.496;13.456;2023-05-01T09:15:43;101365.59;;;20.29;28.47
25759;BME280;13604;52.496;13.456;2023-05-01T09:18:08;101327.78;;;18.84;30.57
25759;BME280;13604;52.496;13.456;2023-05-01T09:20:35;101326.38;;;19.48;31.08
25759;BME280;13604;52.496;13.456;2023-05-01T09:23:01;101342.78;;;21.84;28.34
25759;BME280;13604;52.496;13.456;2023-05-01T09:25:26;101330.41;;;20.99;26.93
25759;BME280;13604;52.496;13.456;2023-05-01T09:27:52;101346.34;;;21.02;27.35
25759;BME280;13604;52.496;13.456;2023-05-01T09:30:33;101333.13;;;21.94;26.96
25759;BME280;13604;52.496;13.456;2023-05-01T09:33:10;101346.00;;;22.72;26.55
25759;BME280;13604;52.496;13.456;2023-05-01T09:35:52;101335.63;;;21.77;27.63
25759;BME280;13604;52.496;13.456;2023-05-01T09:38:23;101321.41;;;23.15;25.98
25759;BME280;13604;52.496;13.456;2023-05-01T09:40:49;101322.09;;;24.93;24.66
25759;BME280;13604;52.496;13.456;2023-05-01T09:43:23;101336.34;;;24.90;23.55
25759;BME280;13604;52.496;13.456;2023-05-01T09:46:19;101317.31;;;25.53;23.35
25759;BME280;13604;52.496;13.456;2023-05-01T09:48:55;101309.72;;;26.10;22.72
25759;BME280;13604;52.496;13.456;2023-05-01T09:51:22;101317.91;;;23.70;24.75
25759;BME280;13604;52.496;13.456;2023-05-01T09:53:49;101322.34;;;23.54;25.02
25759;BME280;13604;52.496;13.456;2023-05-01T09:56:16;101308.91;;;24.67;24.74
25759;BME280;13604;52.496;13.456;2023-05-01T09:58:42;101309.63;;;25.01;23.73
25759;BME280;13604;52.496;13.456;2023-05-01T10:01:07;101310.81;;;24.26;24.83
25759;BME280;13604;52.496;13.456;2023-05-01T10:03:33;101286.81;;;22.98;25.74
25759;BME280;13604;52.496;13.456;2023-05-01T10:05:58;101278.41;;;22.10;26.86
25759;BME280;13604;52.496;13.456;2023-05-01T10:08:42;101294.31;;;25.39;24.25
25759;BME280;13604;52.496;13.456;2023-05-01T10:11:08;101289.44;;;25.88;23.40
25759;BME280;13604;52.496;13.456;2023-05-01T10:13:33;101291.78;;;26.97;22.63
25759;BME280;13604;52.496;13.456;2023-05-01T10:15:59;101281.38;;;27.39;21.61
25759;BME280;13604;52.496;13.456;2023-05-01T10:18:27;101283.22;;;24.58;23.94
25759;BME280;13604;52.496;13.456;2023-05-01T10:20:53;101269.91;;;22.77;25.98
25759;BME280;13604;52.496;13.456;2023-05-01T10:23:18;101291.66;;;25.39;24.00
25759;BME280;13604;52.496;13.456;2023-05-01T10:25:44;101287.78;;;23.49;25.05
25759;BME280;13604;52.496;13.456;2023-05-01T10:28:11;101287.28;;;22.15;26.36
25759;BME280;13604;52.496;13.456;2023-05-01T10:30:36;101270.91;;;24.04;24.63
25759;BME280;13604;52.496;13.456;2023-05-01T10:33:04;101261.38;;;25.44;24.62
25759;BME280;13604;52.496;13.456;2023-05-01T10:35:36;101272.47;;;24.79;23.94
25759;BME280;13604;52.496;13.456;2023-05-01T10:38:09;101247.69;;;24.60;24.56
25759;BME280;13604;52.496;13.456;2023-05-01T10:43:15;101222.41;;;25.28;24.13
25759;BME280;13604;52.496;13.456;2023-05-01T10:45:42;101240.59;;;25.82;24.40
25759;BME280;13604;52.496;13.456;2023-05-01T10:48:07;101246.81;;;28.26;21.16
25759;BME280;13604;52.496;13.456;2023-05-01T10:50:33;101227.38;;;25.73;22.45
25759;BME280;13604;52.496;13.456;2023-05-01T10:55:37;101249.41;;;25.88;23.18
25759;BME280;13604;52.496;13.456;2023-05-01T10:58:03;101232.13;;;26.26;22.53
25759;BME280;13604;52.496;13.456;2023-05-01T11:00:29;101216.91;;;26.33;23.26
25759;BME280;13604;52.496;13.456;2023-05-01T11:08:29;101204.50;;;30.22;19.68
25759;BME280;13604;52.496;13.456;2023-05-01T11:10:59;101205.56;;;27.42;20.91
25759;BME280;13604;52.496;13.456;2023-05-01T11:14:05;101185.22;;;25.12;22.83
25759;BME280;13604;52.496;13.456;2023-05-01T11:21:46;101184.19;;;21.34;25.96
25759;BME280;13604;52.496;13.456;2023-05-01T11:24:12;101155.34;;;21.74;27.29
25759;BME280;13604;52.496;13.456;2023-05-01T11:26:38;101166.31;;;21.04;26.98
25759;BME280;13604;52.496;13.456;2023-05-01T11:29:05;101175.56;;;19.90;29.02
25759;BME280;13604;52.496;13.456;2023-05-01T11:31:31;101164.53;;;20.25;29.08
25759;BME280;13604;52.496;13.456;2023-05-01T11:33:57;101164.75;;;20.40;29.06
25759;BME280;13604;52.496;13.456;2023-05-01T11:36:23;101167.75;;;20.71;28.43
25759;BME280;13604;52.496;13.456;2023-05-01T11:38:53;101145.50;;;21.52;27.92
25759;BME280;13604;52.496;13.456;2023-05-01T11:41:21;101134.47;;;22.42;27.67
25759;BME280;13604;52.496;13.456;2023-05-01T11:43:54;101153.03;;;22.48;26.71
25759;BME280;13604;52.496;13.456;2023-05-01T11:46:27;101098.25;;;23.20;26.29
25759;BME280;13604;52.496;13.456;2023-05-01T11:48:58;101142.72;;;26.57;23.64
25759;BME280;13604;52.496;13.456;2023-05-01T11:51:24;101100.97;;;27.57;21.26
25759;BME280;13604;52.496;13.456;2023-05-01T11:54:07;101137.13;;;30.87;19.32
25759;BME280;13604;52.496;13.456;2023-05-01T11:56:34;101146.97;;;30.88;19.20
25759;BME280;13604;52.496;13.456;2023-05-01T11:59:16;101134.56;;;31.86;17.32
25759;BME280;13604;52.496;13.456;2023-05-01T12:01:42;101132.25;;;34.52;16.30
25759;BME280;13604;52.496;13.456;2023-05-01T12:04:10;101110.28;;;33.63;16.26
25759;BME280;13604;52.496;13.456;2023-05-01T12:06:42;101112.25;;;31.59;16.69
25759;BME280;13604;52.496;13.456;2023-05-01T12:09:30;101127.88;;;28.76;18.94
25759;BME280;13604;52.496;13.456;2023-05-01T12:11:56;101118.97;;;27.94;19.96
25759;BME280;13604;52.496;13.456;2023-05-01T12:14:22;101103.94;;;27.87;20.15
25759;BME280;13604;52.496;13.456;2023-05-01T12:16:48;101110.69;;;29.21;19.52
25759;BME280;13604;52.496;13.456;2023-05-01T12:19:14;101114.03;;;28.55;19.90
25759;BME280;13604;52.496;13.456;2023-05-01T12:21:40;101090.03;;;27.21;20.78
25759;BME280;13604;52.496;13.456;2023-05-01T12:24:16;101083.53;;;26.86;21.04
25759;BME280;13604;52.496;13.456;2023-05-01T12:26:45;101078.97;;;27.43;20.47
25759;BME280;13604;52.496;13.456;2023-05-01T12:29:11;101099.16;;;25.01;22.83
25759;BME280;13604;52.496;13.456;2023-05-01T12:31:45;101069.72;;;28.03;21.19
25759;BME280;13604;52.496;13.456;2023-05-01T12:34:11;101072.31;;;28.82;20.54
25759;BME280;13604;52.496;13.456;2023-05-01T12:36:36;101083.16;;;27.08;21.28
25759;BME280;13604;52.496;13.456;2023-05-01T12:39:05;101076.78;;;25.98;21.96
25759;BME280;13604;52.496;13.456;2023-05-01T12:44:25;101073.59;;;25.68;23.04
25759;BME280;13604;52.496;13.456;2023-05-01T12:46:58;101066.84;;;24.28;24.00
25759;BME280;13604;52.496;13.456;2023-05-01T12:49:24;101067.91;;;25.99;22.81
25759;BME280;13604;52.496;13.456;2023-05-01T12:51:51;101053.44;;;27.23;22.25
25759;BME280;13604;52.496;13.456;2023-05-01T12:54:28;101049.66;;;28.94;20.52
25759;BME280;13604;52.496;13.456;2023-05-01T12:57:10;101045.97;;;29.64;19.64
25759;BME280;13604;52.496;13.456;2023-05-01T12:59:37;101030.47;;;26.61;21.36
25759;BME280;13604;52.496;13.456;2023-05-01T13:02:05;101058.91;;;26.06;22.42
25759;BME280;13604;52.496;13.456;2023-05-01T13:04:30;101066.53;;;24.76;23.78
25759;BME280;13604;52.496;13.456;2023-05-01T13:06:57;100998.63;;;25.90;22.81
25759;BME280;13604;52.496;13.456;2023-05-01T13:09:23;101055.13;;;26.20;21.96
25759;BME280;13604;52.496;13.456;2023-05-01T13:12:01;101032.56;;;27.45;21.23
25759;BME280;13604;52.496;13.456;2023-05-01T13:14:34;101049.97;;;28.84;19.92